sensor_id;sensor_type;location;lat;lon;timestamp;P1;durP1;ratioP1;P2;durP2;ratioP2
27305;SDS011;14792;50.886;6.468;2023-03-01T00:01:20;21.82;;;9.55;;
27305;SDS011;14792;50.886;6.468;2023-03-01T00:04:20;17.40;;;9.65;;
27305;SDS011;14792;50.886;6.468;2023-03-01T00:07:22;14.83;;;9.25;;
27305;SDS011;14792;50.886;6.468;2023-03-01T00:10:23;18.45;;;9.05;;
27305;SDS011;14792;50.886;6.468;2023-03-01T00:13:25;19.77;;;8.43;;
27305;SDS011;14792;50.886;6.468;2023-03-01T00:16:28;19.95;;;8.75;;
27305;SDS011;14792;50.886;6.468;2023-03-01T00:19:28;14.87;;;8.63;;
27305;SDS011;14792;50.886;6.468;2023-03-01T00:22:30;16.25;;;8.40;;
27305;SDS011;14792;50.886;6.468;2023-03-01T00:25:31;15.75;;;8.95;;
27305;SDS011;14792;50.886;6.468;2023-03-01T00:28:33;17.73;;;8.40;;
27305;SDS011;14792;50.886;6.468;2023-03-01T00:31:35;17.48;;;10.03;;
27305;SDS011;14792;50.886;6.468;2023-03-01T00:34:36;26.00;;;10.98;;
27305;SDS011;14792;50.886;6.468;2023-03-01T00:37:38;18.07;;;10.72;;
27305;SDS011;14792;50.886;6.468;2023-03-01T00:40:39;18.15;;;11.05;;
27305;SDS011;14792;50.886;6.468;2023-03-01T00:43:41;23.85;;;10.05;;
27305;SDS011;14792;50.886;6.468;2023-03-01T00:46:43;19.60;;;10.05;;
27305;SDS011;14792;50.886;6.468;2023-03-01T00:49:44;20.20;;;10.35;;
27305;SDS011;14792;50.886;6.468;2023-03-01T00:52:46;20.65;;;9.95;;
27305;SDS011;14792;50.886;6.468;2023-03-01T00:55:47;23.07;;;10.25;;
27305;SDS011;14792;50.886;6.468;2023-03-01T00:58:49;21.23;;;10.38;;
27305;SDS011;14792;50.886;6.468;2023-03-01T01:01:51;22.05;;;9.88;;
27305;SDS011;14792;50.886;6.468;2023-03-01T01:04:52;22.62;;;9.40;;
27305;SDS011;14792;50.886;6.468;2023-03-01T01:07:54;22.73;;;10.03;;
27305;SDS011;14792;50.886;6.468;2023-03-01T01:10:55;26.65;;;10.05;;
27305;SDS011;14792;50.886;6.468;2023-03-01T01:13:58;23.32;;;9.30;;
27305;SDS011;14792;50.886;6.468;2023-03-01T01:20:00;18.32;;;10.00;;
27305;SDS011;14792;50.886;6.468;2023-03-01T01:23:02;20.82;;;9.28;;
27305;SDS011;14792;50.886;6.468;2023-03-01T01:26:06;16.42;;;9.30;;
27305;SDS011;14792;50.886;6.468;2023-03-01T01:29:07;18.10;;;9.10;;
27305;SDS011;14792;50.886;6.468;2023-03-01T01:32:09;21.62;;;9.75;;
27305;SDS011;14792;50.886;6.468;2023-03-01T01:35:11;17.17;;;9.33;;
27305;SDS011;14792;50.886;6.468;2023-03-01T01:38:12;17.67;;;10.30;;
27305;SDS011;14792;50.886;6.468;2023-03-01T01:41:14;19.20;;;9.88;;
27305;SDS011;14792;50.886;6.468;2023-03-01T01:47:20;18.48;;;8.98;;
27305;SDS011;14792;50.886;6.468;2023-03-01T01:50:21;16.40;;;9.43;;
27305;SDS011;14792;50.886;6.468;2023-03-01T01:53:23;21.23;;;9.73;;
27305;SDS011;14792;50.886;6.468;2023-03-01T01:56:25;20.00;;;10.43;;
27305;SDS011;14792;50.886;6.468;2023-03-01T01:59:26;19.25;;;9.65;;
27305;SDS011;14792;50.886;6.468;2023-03-01T02:02:28;17.98;;;10.60;;
27305;SDS011;14792;50.886;6.468;2023-03-01T02:05:42;16.40;;;9.43;;
27305;SDS011;14792;50.886;6.468;2023-03-01T02:08:40;21.73;;;10.15;;
27305;SDS011;14792;50.886;6.468;2023-03-01T02:11:42;19.02;;;10.80;;
27305;SDS011;14792;50.886;6.468;2023-03-01T02:14:43;20.12;;;10.50;;
27305;SDS011;14792;50.886;6.468;2023-03-01T02:17:46;19.85;;;10.28;;
27305;SDS011;14792;50.886;6.468;2023-03-01T02:20:54;19.10;;;9.88;;
27305;SDS011;14792;50.886;6.468;2023-03-01T02:23:53;18.70;;;9.70;;
27305;SDS011;14792;50.886;6.468;2023-03-01T02:26:54;21.27;;;9.73;;
27305;SDS011;14792;50.886;6.468;2023-03-01T02:29:55;18.25;;;9.63;;
27305;SDS011;14792;50.886;6.468;2023-03-01T02:32:56;17.45;;;10.05;;
27305;SDS011;14792;50.886;6.468;2023-03-01T02:35:58;20.27;;;10.95;;
27305;SDS011;14792;50.886;6.468;2023-03-01T02:39:00;22.58;;;11.12;;
27305;SDS011;14792;50.886;6.468;2023-03-01T02:42:01;16.70;;;9.55;;
27305;SDS011;14792;50.886;6.468;2023-03-01T02:45:03;19.98;;;10.63;;
27305;SDS011;14792;50.886;6.468;2023-03-01T02:48:04;20.97;;;10.93;;
27305;SDS011;14792;50.886;6.468;2023-03-01T02:54:29;21.25;;;11.08;;
27305;SDS011;14792;50.886;6.468;2023-03-01T02:57:27;19.25;;;11.03;;
27305;SDS011;14792;50.886;6.468;2023-03-01T03:00:31;19.82;;;10.53;;
27305;SDS011;14792;50.886;6.468;2023-03-01T03:03:34;19.60;;;10.30;;
27305;SDS011;14792;50.886;6.468;2023-03-01T03:06:35;20.37;;;11.45;;
27305;SDS011;14792;50.886;6.468;2023-03-01T03:09:37;22.15;;;11.10;;
27305;SDS011;14792;50.886;6.468;2023-03-01T03:15:40;21.40;;;10.57;;
27305;SDS011;14792;50.886;6.468;2023-03-01T03:18:41;22.48;;;10.75;;
27305;SDS011;14792;50.886;6.468;2023-03-01T03:21:43;28.62;;;11.53;;
27305;SDS011;14792;50.886;6.468;2023-03-01T03:24:45;21.15;;;11.80;;
27305;SDS011;14792;50.886;6.468;2023-03-01T03:27:47;23.90;;;11.45;;
27305;SDS011;14792;50.886;6.468;2023-03-01T03:30:48;23.42;;;10.82;;
27305;SDS011;14792;50.886;6.468;2023-03-01T03:33:49;22.02;;;11.85;;
27305;SDS011;14792;50.886;6.468;2023-03-01T03:36:54;21.25;;;12.13;;
27305;SDS011;14792;50.886;6.468;2023-03-01T03:39:58;22.13;;;10.75;;
27305;SDS011;14792;50.886;6.468;2023-03-01T03:43:00;21.90;;;12.07;;
27305;SDS011;14792;50.886;6.468;2023-03-01T03:46:01;22.42;;;11.73;;
27305;SDS011;14792;50.886;6.468;2023-03-01T03:49:03;22.80;;;11.00;;
27305;SDS011;14792;50.886;6.468;2023-03-01T03:52:04;27.77;;;12.73;;
27305;SDS011;14792;50.886;6.468;2023-03-01T03:55:06;19.75;;;10.93;;
27305;SDS011;14792;50.886;6.468;2023-03-01T03:58:10;20.43;;;11.38;;
27305;SDS011;14792;50.886;6.468;2023-03-01T04:01:12;20.60;;;10.88;;
27305;SDS011;14792;50.886;6.468;2023-03-01T04:04:14;22.75;;;11.85;;
27305;SDS011;14792;50.886;6.468;2023-03-01T04:10:17;15.03;;;8.20;;
27305;SDS011;14792;50.886;6.468;2023-03-01T04:13:19;21.33;;;11.50;;
27305;SDS011;14792;50.886;6.468;2023-03-01T04:16:20;19.82;;;11.68;;
27305;SDS011;14792;50.886;6.468;2023-03-01T04:19:21;24.60;;;13.15;;
27305;SDS011;14792;50.886;6.468;2023-03-01T04:22:23;24.45;;;12.70;;
27305;SDS011;14792;50.886;6.468;2023-03-01T04:25:25;25.65;;;12.35;;
27305;SDS011;14792;50.886;6.468;2023-03-01T04:28:27;23.67;;;12.35;;
27305;SDS011;14792;50.886;6.468;2023-03-01T04:31:28;26.33;;;12.50;;
27305;SDS011;14792;50.886;6.468;2023-03-01T04:34:29;23.67;;;12.05;;
27305;SDS011;14792;50.886;6.468;2023-03-01T04:37:31;26.90;;;13.38;;
27305;SDS011;14792;50.886;6.468;2023-03-01T04:40:33;21.37;;;12.65;;
27305;SDS011;14792;50.886;6.468;2023-03-01T04:43:34;23.47;;;12.15;;
27305;SDS011;14792;50.886;6.468;2023-03-01T04:46:36;21.68;;;13.08;;
27305;SDS011;14792;50.886;6.468;2023-03-01T04:49:37;21.07;;;12.80;;
27305;SDS011;14792;50.886;6.468;2023-03-01T04:52:39;27.13;;;13.10;;
27305;SDS011;14792;50.886;6.468;2023-03-01T04:55:41;27.87;;;14.18;;
27305;SDS011;14792;50.886;6.468;2023-03-01T04:58:42;28.30;;;14.35;;
27305;SDS011;14792;50.886;6.468;2023-03-01T05:01:44;23.47;;;13.60;;
27305;SDS011;14792;50.886;6.468;2023-03-01T05:04:46;24.12;;;13.25;;
27305;SDS011;14792;50.886;6.468;2023-03-01T05:07:47;24.75;;;13.62;;
27305;SDS011;14792;50.886;6.468;2023-03-01T05:10:52;25.15;;;13.65;;
27305;SDS011;14792;50.886;6.468;2023-03-01T05:13:50;25.65;;;14.95;;
27305;SDS011;14792;50.886;6.468;2023-03-01T05:16:52;27.27;;;14.78;;
27305;SDS011;14792;50.886;6.468;2023-03-01T05:19:53;24.50;;;14.55;;
27305;SDS011;14792;50.886;6.468;2023-03-01T05:22:56;27.77;;;14.65;;
27305;SDS011;14792;50.886;6.468;2023-03-01T05:26:00;29.45;;;14.90;;
27305;SDS011;14792;50.886;6.468;2023-03-01T05:29:01;30.50;;;14.60;;
27305;SDS011;14792;50.886;6.468;2023-03-01T05:32:03;24.15;;;14.45;;
27305;SDS011;14792;50.886;6.468;2023-03-01T05:35:04;29.10;;;14.28;;
27305;SDS011;14792;50.886;6.468;2023-03-01T05:38:06;30.15;;;15.23;;
27305;SDS011;14792;50.886;6.468;2023-03-01T05:41:13;30.55;;;15.72;;
27305;SDS011;14792;50.886;6.468;2023-03-01T05:44:09;29.63;;;13.38;;
27305;SDS011;14792;50.886;6.468;2023-03-01T05:47:11;34.78;;;15.58;;
27305;SDS011;14792;50.886;6.468;2023-03-01T05:50:16;28.17;;;14.03;;
27305;SDS011;14792;50.886;6.468;2023-03-01T05:53:23;30.40;;;14.80;;
27305;SDS011;14792;50.886;6.468;2023-03-01T05:56:24;40.73;;;16.65;;
27305;SDS011;14792;50.886;6.468;2023-03-01T05:59:26;24.18;;;13.75;;
27305;SDS011;14792;50.886;6.468;2023-03-01T06:02:27;28.85;;;14.18;;
27305;SDS011;14792;50.886;6.468;2023-03-01T06:05:29;25.65;;;13.80;;
27305;SDS011;14792;50.886;6.468;2023-03-01T06:08:31;29.98;;;14.93;;
27305;SDS011;14792;50.886;6.468;2023-03-01T06:11:35;28.47;;;15.35;;
27305;SDS011;14792;50.886;6.468;2023-03-01T06:14:36;29.65;;;14.83;;
27305;SDS011;14792;50.886;6.468;2023-03-01T06:17:39;25.95;;;14.40;;
27305;SDS011;14792;50.886;6.468;2023-03-01T06:20:39;29.25;;;14.70;;
27305;SDS011;14792;50.886;6.468;2023-03-01T06:23:41;30.80;;;13.90;;
27305;SDS011;14792;50.886;6.468;2023-03-01T06:26:43;30.95;;;15.20;;
27305;SDS011;14792;50.886;6.468;2023-03-01T06:29:44;23.38;;;13.40;;
27305;SDS011;14792;50.886;6.468;2023-03-01T06:32:46;28.87;;;15.60;;
27305;SDS011;14792;50.886;6.468;2023-03-01T06:35:47;30.48;;;15.23;;
27305;SDS011;14792;50.886;6.468;2023-03-01T06:38:49;27.87;;;14.65;;
27305;SDS011;14792;50.886;6.468;2023-03-01T06:41:51;24.18;;;14.80;;
27305;SDS011;14792;50.886;6.468;2023-03-01T06:44:52;25.90;;;15.28;;
27305;SDS011;14792;50.886;6.468;2023-03-01T06:48:00;28.90;;;14.95;;
27305;SDS011;14792;50.886;6.468;2023-03-01T06:50:57;26.35;;;13.90;;
27305;SDS011;14792;50.886;6.468;2023-03-01T06:53:57;27.87;;;15.18;;
27305;SDS011;14792;50.886;6.468;2023-03-01T06:56:59;34.58;;;15.55;;
27305;SDS011;14792;50.886;6.468;2023-03-01T07:00:00;25.48;;;14.85;;
27305;SDS011;14792;50.886;6.468;2023-03-01T07:03:02;24.82;;;14.60;;
27305;SDS011;14792;50.886;6.468;2023-03-01T07:06:03;31.85;;;15.80;;
27305;SDS011;14792;50.886;6.468;2023-03-01T07:09:05;29.77;;;16.05;;
27305;SDS011;14792;50.886;6.468;2023-03-01T07:12:07;32.17;;;15.98;;
27305;SDS011;14792;50.886;6.468;2023-03-01T07:15:08;27.77;;;15.20;;
27305;SDS011;14792;50.886;6.468;2023-03-01T07:18:10;29.05;;;15.18;;
27305;SDS011;14792;50.886;6.468;2023-03-01T07:21:12;29.00;;;15.18;;
27305;SDS011;14792;50.886;6.468;2023-03-01T07:24:13;27.20;;;14.18;;
27305;SDS011;14792;50.886;6.468;2023-03-01T07:27:15;31.20;;;14.47;;
27305;SDS011;14792;50.886;6.468;2023-03-01T07:30:16;27.50;;;14.53;;
27305;SDS011;14792;50.886;6.468;2023-03-01T07:33:18;33.67;;;14.80;;
27305;SDS011;14792;50.886;6.468;2023-03-01T07:36:19;27.75;;;14.68;;
27305;SDS011;14792;50.886;6.468;2023-03-01T07:39:21;28.00;;;15.00;;
27305;SDS011;14792;50.886;6.468;2023-03-01T07:42:24;35.75;;;16.10;;
27305;SDS011;14792;50.886;6.468;2023-03-01T07:45:25;27.55;;;15.10;;
27305;SDS011;14792;50.886;6.468;2023-03-01T07:48:27;29.15;;;15.60;;
27305;SDS011;14792;50.886;6.468;2023-03-01T07:51:28;34.00;;;16.70;;
27305;SDS011;14792;50.886;6.468;2023-03-01T07:54:30;24.67;;;14.55;;
27305;SDS011;14792;50.886;6.468;2023-03-01T07:57:32;30.10;;;14.43;;
27305;SDS011;14792;50.886;6.468;2023-03-01T08:00:33;23.90;;;14.50;;
27305;SDS011;14792;50.886;6.468;2023-03-01T08:03:35;27.58;;;14.73;;
27305;SDS011;14792;50.886;6.468;2023-03-01T08:06:36;24.52;;;14.70;;
27305;SDS011;14792;50.886;6.468;2023-03-01T08:09:38;22.62;;;14.00;;
27305;SDS011;14792;50.886;6.468;2023-03-01T08:12:40;22.35;;;14.28;;
27305;SDS011;14792;50.886;6.468;2023-03-01T08:15:41;26.35;;;14.73;;
27305;SDS011;14792;50.886;6.468;2023-03-01T08:18:43;25.05;;;14.03;;
27305;SDS011;14792;50.886;6.468;2023-03-01T08:21:44;27.55;;;14.60;;
27305;SDS011;14792;50.886;6.468;2023-03-01T08:24:46;22.22;;;14.00;;
27305;SDS011;14792;50.886;6.468;2023-03-01T08:27:48;25.62;;;14.53;;
27305;SDS011;14792;50.886;6.468;2023-03-01T08:30:49;27.40;;;14.15;;
27305;SDS011;14792;50.886;6.468;2023-03-01T08:33:52;26.35;;;15.58;;
27305;SDS011;14792;50.886;6.468;2023-03-01T08:36:52;25.75;;;15.53;;
27305;SDS011;14792;50.886;6.468;2023-03-01T08:39:54;30.45;;;15.05;;
27305;SDS011;14792;50.886;6.468;2023-03-01T08:42:56;31.48;;;15.00;;
27305;SDS011;14792;50.886;6.468;2023-03-01T08:45:57;32.45;;;15.48;;
27305;SDS011;14792;50.886;6.468;2023-03-01T08:48:59;22.25;;;14.25;;
27305;SDS011;14792;50.886;6.468;2023-03-01T08:52:01;24.60;;;14.55;;
27305;SDS011;14792;50.886;6.468;2023-03-01T08:55:02;27.10;;;13.70;;
27305;SDS011;14792;50.886;6.468;2023-03-01T08:58:04;28.80;;;14.13;;
27305;SDS011;14792;50.886;6.468;2023-03-01T09:01:12;27.05;;;14.53;;
27305;SDS011;14792;50.886;6.468;2023-03-01T09:04:14;24.32;;;15.00;;
27305;SDS011;14792;50.886;6.468;2023-03-01T09:07:14;23.10;;;14.73;;
27305;SDS011;14792;50.886;6.468;2023-03-01T09:10:16;28.07;;;14.65;;
27305;SDS011;14792;50.886;6.468;2023-03-01T09:13:17;24.47;;;15.28;;
27305;SDS011;14792;50.886;6.468;2023-03-01T09:16:20;23.57;;;15.15;;
27305;SDS011;14792;50.886;6.468;2023-03-01T09:19:21;28.27;;;14.43;;
27305;SDS011;14792;50.886;6.468;2023-03-01T09:22:22;22.27;;;14.47;;
27305;SDS011;14792;50.886;6.468;2023-03-01T09:25:24;22.20;;;14.50;;
27305;SDS011;14792;50.886;6.468;2023-03-01T09:28:25;24.52;;;14.35;;
27305;SDS011;14792;50.886;6.468;2023-03-01T09:31:27;24.57;;;14.78;;
27305;SDS011;14792;50.886;6.468;2023-03-01T09:34:29;22.82;;;14.50;;
27305;SDS011;14792;50.886;6.468;2023-03-01T09:37:34;20.60;;;13.78;;
27305;SDS011;14792;50.886;6.468;2023-03-01T09:40:32;21.20;;;14.03;;
27305;SDS011;14792;50.886;6.468;2023-03-01T09:43:40;23.98;;;14.23;;
27305;SDS011;14792;50.886;6.468;2023-03-01T09:46:44;21.17;;;14.10;;
27305;SDS011;14792;50.886;6.468;2023-03-01T09:49:47;23.45;;;14.28;;
27305;SDS011;14792;50.886;6.468;2023-03-01T09:56:22;23.22;;;14.50;;
27305;SDS011;14792;50.886;6.468;2023-03-01T09:59:40;25.70;;;14.78;;
27305;SDS011;14792;50.886;6.468;2023-03-01T10:02:43;25.92;;;16.17;;
27305;SDS011;14792;50.886;6.468;2023-03-01T10:05:56;34.48;;;20.32;;
27305;SDS011;14792;50.886;6.468;2023-03-01T10:08:56;22.40;;;14.85;;
27305;SDS011;14792;50.886;6.468;2023-03-01T10:11:58;27.07;;;17.12;;
27305;SDS011;14792;50.886;6.468;2023-03-01T10:15:07;27.37;;;15.10;;
27305;SDS011;14792;50.886;6.468;2023-03-01T10:18:11;26.10;;;15.18;;
27305;SDS011;14792;50.886;6.468;2023-03-01T10:24:14;27.70;;;16.50;;
27305;SDS011;14792;50.886;6.468;2023-03-01T10:27:19;26.42;;;14.28;;
27305;SDS011;14792;50.886;6.468;2023-03-01T10:30:22;20.20;;;13.88;;
27305;SDS011;14792;50.886;6.468;2023-03-01T10:33:41;27.05;;;15.93;;
27305;SDS011;14792;50.886;6.468;2023-03-01T10:36:43;24.30;;;14.63;;
27305;SDS011;14792;50.886;6.468;2023-03-01T10:40:05;23.40;;;14.83;;
27305;SDS011;14792;50.886;6.468;2023-03-01T10:43:10;27.45;;;14.75;;
27305;SDS011;14792;50.886;6.468;2023-03-01T10:46:30;24.43;;;13.62;;
27305;SDS011;14792;50.886;6.468;2023-03-01T10:49:34;23.87;;;14.78;;
27305;SDS011;14792;50.886;6.468;2023-03-01T10:52:36;26.57;;;15.15;;
27305;SDS011;14792;50.886;6.468;2023-03-01T10:55:37;24.87;;;14.68;;
27305;SDS011;14792;50.886;6.468;2023-03-01T10:58:38;23.62;;;14.40;;
27305;SDS011;14792;50.886;6.468;2023-03-01T11:01:39;25.62;;;14.33;;
27305;SDS011;14792;50.886;6.468;2023-03-01T11:05:00;23.73;;;14.47;;
27305;SDS011;14792;50.886;6.468;2023-03-01T11:08:04;23.95;;;14.28;;
27305;SDS011;14792;50.886;6.468;2023-03-01T11:11:25;35.17;;;14.50;;
27305;SDS011;14792;50.886;6.468;2023-03-01T11:14:37;22.98;;;14.00;;
27305;SDS011;14792;50.886;6.468;2023-03-01T11:17:39;26.17;;;15.32;;
27305;SDS011;14792;50.886;6.468;2023-03-01T11:20:40;24.50;;;14.40;;
27305;SDS011;14792;50.886;6.468;2023-03-01T11:23:43;21.85;;;13.40;;
27305;SDS011;14792;50.886;6.468;2023-03-01T11:26:46;25.15;;;14.18;;
27305;SDS011;14792;50.886;6.468;2023-03-01T11:29:51;25.35;;;13.98;;
27305;SDS011;14792;50.886;6.468;2023-03-01T11:33:49;19.62;;;13.38;;
27305;SDS011;14792;50.886;6.468;2023-03-01T11:42:41;25.20;;;13.90;;
27305;SDS011;14792;50.886;6.468;2023-03-01T11:45:42;20.12;;;13.65;;
27305;SDS011;14792;50.886;6.468;2023-03-01T11:52:21;21.02;;;13.53;;
27305;SDS011;14792;50.886;6.468;2023-03-01T12:09:16;18.87;;;12.25;;
27305;SDS011;14792;50.886;6.468;2023-03-01T12:12:25;19.77;;;11.97;;
27305;SDS011;14792;50.886;6.468;2023-03-01T12:15:32;19.92;;;12.43;;
27305;SDS011;14792;50.886;6.468;2023-03-01T12:25:27;17.35;;;11.43;;
27305;SDS011;14792;50.886;6.468;2023-03-01T12:38:40;19.85;;;11.90;;
27305;SDS011;14792;50.886;6.468;2023-03-01T12:42:00;18.73;;;12.07;;
27305;SDS011;14792;50.886;6.468;2023-03-01T12:52:04;19.05;;;12.50;;
27305;SDS011;14792;50.886;6.468;2023-03-01T12:55:05;17.92;;;12.10;;
27305;SDS011;14792;50.886;6.468;2023-03-01T12:58:09;21.12;;;12.30;;
27305;SDS011;14792;50.886;6.468;2023-03-01T13:01:14;19.95;;;11.60;;
27305;SDS011;14792;50.886;6.468;2023-03-01T13:07:41;18.87;;;11.28;;
27305;SDS011;14792;50.886;6.468;2023-03-01T13:11:00;16.17;;;11.48;;
27305;SDS011;14792;50.886;6.468;2023-03-01T13:17:33;14.30;;;10.43;;
27305;SDS011;14792;50.886;6.468;2023-03-01T13:23:36;15.58;;;9.98;;
27305;SDS011;14792;50.886;6.468;2023-03-01T13:27:08;15.35;;;10.90;;
27305;SDS011;14792;50.886;6.468;2023-03-01T13:29:48;17.57;;;10.72;;
27305;SDS011;14792;50.886;6.468;2023-03-01T13:32:49;14.03;;;10.28;;
27305;SDS011;14792;50.886;6.468;2023-03-01T13:35:50;14.75;;;10.23;;
27305;SDS011;14792;50.886;6.468;2023-03-01T13:41:56;17.60;;;10.95;;
27305;SDS011;14792;50.886;6.468;2023-03-01T13:44:58;20.23;;;11.80;;
27305;SDS011;14792;50.886;6.468;2023-03-01T13:48:02;15.25;;;10.20;;
27305;SDS011;14792;50.886;6.468;2023-03-01T13:51:05;16.77;;;9.80;;
27305;SDS011;14792;50.886;6.468;2023-03-01T13:54:09;15.40;;;10.10;;
27305;SDS011;14792;50.886;6.468;2023-03-01T13:57:12;17.50;;;10.75;;
27305;SDS011;14792;50.886;6.468;2023-03-01T14:03:29;17.15;;;10.60;;
27305;SDS011;14792;50.886;6.468;2023-03-01T14:06:31;17.23;;;10.30;;
27305;SDS011;14792;50.886;6.468;2023-03-01T14:09:31;23.02;;;10.50;;
27305;SDS011;14792;50.886;6.468;2023-03-01T14:12:41;21.30;;;10.65;;
27305;SDS011;14792;50.886;6.468;2023-03-01T14:15:47;13.83;;;10.48;;
27305;SDS011;14792;50.886;6.468;2023-03-01T14:18:54;26.05;;;11.38;;
27305;SDS011;14792;50.886;6.468;2023-03-01T14:22:24;21.82;;;11.12;;
27305;SDS011;14792;50.886;6.468;2023-03-01T14:25:04;17.05;;;11.70;;
27305;SDS011;14792;50.886;6.468;2023-03-01T14:28:12;18.95;;;11.43;;
27305;SDS011;14792;50.886;6.468;2023-03-01T14:34:34;16.82;;;10.18;;
27305;SDS011;14792;50.886;6.468;2023-03-01T14:37:36;18.52;;;10.30;;
27305;SDS011;14792;50.886;6.468;2023-03-01T14:40:37;16.60;;;10.95;;
27305;SDS011;14792;50.886;6.468;2023-03-01T14:43:41;15.28;;;10.03;;
27305;SDS011;14792;50.886;6.468;2023-03-01T14:46:41;18.57;;;10.30;;
27305;SDS011;14792;50.886;6.468;2023-03-01T14:49:42;16.95;;;10.32;;
27305;SDS011;14792;50.886;6.468;2023-03-01T14:52:45;15.30;;;10.18;;
27305;SDS011;14792;50.886;6.468;2023-03-01T14:55:50;16.48;;;9.88;;
27305;SDS011;14792;50.886;6.468;2023-03-01T14:58:53;18.48;;;10.80;;
27305;SDS011;14792;50.886;6.468;2023-03-01T15:01:56;16.55;;;9.55;;
27305;SDS011;14792;50.886;6.468;2023-03-01T15:04:57;13.35;;;9.43;;
27305;SDS011;14792;50.886;6.468;2023-03-01T15:07:58;20.23;;;9.15;;
27305;SDS011;14792;50.886;6.468;2023-03-01T15:11:03;13.62;;;8.73;;
27305;SDS011;14792;50.886;6.468;2023-03-01T15:14:24;21.42;;;9.80;;
27305;SDS011;14792;50.886;6.468;2023-03-01T15:17:15;14.33;;;9.45;;
27305;SDS011;14792;50.886;6.468;2023-03-01T15:20:19;14.23;;;8.38;;
27305;SDS011;14792;50.886;6.468;2023-03-01T15:23:24;15.40;;;8.65;;
27305;SDS011;14792;50.886;6.468;2023-03-01T15:26:28;13.88;;;8.45;;
27305;SDS011;14792;50.886;6.468;2023-03-01T15:29:28;13.88;;;8.90;;
27305;SDS011;14792;50.886;6.468;2023-03-01T15:35:40;15.72;;;8.38;;
27305;SDS011;14792;50.886;6.468;2023-03-01T15:41:51;16.23;;;8.05;;
27305;SDS011;14792;50.886;6.468;2023-03-01T15:48:17;14.70;;;8.08;;
27305;SDS011;14792;50.886;6.468;2023-03-01T15:51:16;16.73;;;8.58;;
27305;SDS011;14792;50.886;6.468;2023-03-01T15:54:18;15.13;;;8.35;;
27305;SDS011;14792;50.886;6.468;2023-03-01T15:57:20;11.85;;;7.67;;
27305;SDS011;14792;50.886;6.468;2023-03-01T16:00:21;14.23;;;8.85;;
27305;SDS011;14792;50.886;6.468;2023-03-01T16:03:23;14.90;;;8.90;;
27305;SDS011;14792;50.886;6.468;2023-03-01T16:06:24;15.03;;;8.30;;
27305;SDS011;14792;50.886;6.468;2023-03-01T16:09:26;14.55;;;9.38;;
27305;SDS011;14792;50.886;6.468;2023-03-01T16:12:28;14.43;;;8.43;;
27305;SDS011;14792;50.886;6.468;2023-03-01T16:15:30;18.20;;;8.53;;
27305;SDS011;14792;50.886;6.468;2023-03-01T16:18:31;13.95;;;8.78;;
27305;SDS011;14792;50.886;6.468;2023-03-01T16:21:32;16.65;;;8.98;;
27305;SDS011;14792;50.886;6.468;2023-03-01T16:24:34;16.93;;;8.68;;
27305;SDS011;14792;50.886;6.468;2023-03-01T16:27:35;16.32;;;8.58;;
27305;SDS011;14792;50.886;6.468;2023-03-01T16:30:38;14.93;;;8.28;;
27305;SDS011;14792;50.886;6.468;2023-03-01T16:33:39;17.48;;;8.78;;
27305;SDS011;14792;50.886;6.468;2023-03-01T16:36:41;15.32;;;8.50;;
27305;SDS011;14792;50.886;6.468;2023-03-01T16:39:42;16.37;;;9.18;;
27305;SDS011;14792;50.886;6.468;2023-03-01T16:42:44;17.30;;;8.55;;
27305;SDS011;14792;50.886;6.468;2023-03-01T16:45:45;18.00;;;8.63;;
27305;SDS011;14792;50.886;6.468;2023-03-01T16:48:47;16.00;;;8.23;;
27305;SDS011;14792;50.886;6.468;2023-03-01T16:51:48;15.28;;;8.53;;
27305;SDS011;14792;50.886;6.468;2023-03-01T16:54:50;12.93;;;8.10;;
27305;SDS011;14792;50.886;6.468;2023-03-01T16:57:52;18.27;;;8.70;;
27305;SDS011;14792;50.886;6.468;2023-03-01T17:00:53;16.20;;;9.00;;
27305;SDS011;14792;50.886;6.468;2023-03-01T17:03:55;14.83;;;8.33;;
27305;SDS011;14792;50.886;6.468;2023-03-01T17:06:56;12.70;;;7.60;;
27305;SDS011;14792;50.886;6.468;2023-03-01T17:09:59;15.05;;;8.88;;
27305;SDS011;14792;50.886;6.468;2023-03-01T17:13:02;16.23;;;10.65;;
27305;SDS011;14792;50.886;6.468;2023-03-01T17:16:08;19.95;;;12.75;;
27305;SDS011;14792;50.886;6.468;2023-03-01T17:19:09;14.83;;;8.58;;
27305;SDS011;14792;50.886;6.468;2023-03-01T17:22:10;37.88;;;17.02;;
27305;SDS011;14792;50.886;6.468;2023-03-01T17:25:12;22.52;;;11.45;;
27305;SDS011;14792;50.886;6.468;2023-03-01T17:28:13;18.67;;;8.48;;
27305;SDS011;14792;50.886;6.468;2023-03-01T17:31:15;17.73;;;9.45;;
27305;SDS011;14792;50.886;6.468;2023-03-01T17:34:17;18.35;;;8.38;;
27305;SDS011;14792;50.886;6.468;2023-03-01T17:37:18;23.85;;;8.00;;
27305;SDS011;14792;50.886;6.468;2023-03-01T17:40:20;24.43;;;7.83;;
27305;SDS011;14792;50.886;6.468;2023-03-01T17:43:21;12.90;;;7.40;;
27305;SDS011;14792;50.886;6.468;2023-03-01T17:46:23;16.30;;;7.97;;
27305;SDS011;14792;50.886;6.468;2023-03-01T17:49:25;13.03;;;7.65;;
27305;SDS011;14792;50.886;6.468;2023-03-01T17:52:26;15.85;;;7.75;;
27305;SDS011;14792;50.886;6.468;2023-03-01T17:55:28;14.38;;;7.17;;
27305;SDS011;14792;50.886;6.468;2023-03-01T17:58:29;10.80;;;6.37;;
27305;SDS011;14792;50.886;6.468;2023-03-01T18:01:31;12.00;;;7.95;;
27305;SDS011;14792;50.886;6.468;2023-03-01T18:04:33;14.83;;;7.40;;
27305;SDS011;14792;50.886;6.468;2023-03-01T18:07:34;13.93;;;7.28;;
27305;SDS011;14792;50.886;6.468;2023-03-01T18:10:36;14.07;;;7.62;;
27305;SDS011;14792;50.886;6.468;2023-03-01T18:13:37;12.35;;;7.30;;
27305;SDS011;14792;50.886;6.468;2023-03-01T18:16:39;13.95;;;7.28;;
27305;SDS011;14792;50.886;6.468;2023-03-01T18:19:41;12.98;;;7.35;;
27305;SDS011;14792;50.886;6.468;2023-03-01T18:22:42;13.48;;;7.65;;
27305;SDS011;14792;50.886;6.468;2023-03-01T18:25:44;13.50;;;7.30;;
27305;SDS011;14792;50.886;6.468;2023-03-01T18:28:45;13.40;;;8.78;;
27305;SDS011;14792;50.886;6.468;2023-03-01T18:31:47;13.98;;;8.13;;
27305;SDS011;14792;50.886;6.468;2023-03-01T18:34:49;14.85;;;8.23;;
27305;SDS011;14792;50.886;6.468;2023-03-01T18:37:50;11.48;;;7.35;;
27305;SDS011;14792;50.886;6.468;2023-03-01T18:40:52;18.42;;;7.35;;
27305;SDS011;14792;50.886;6.468;2023-03-01T18:43:54;12.05;;;7.85;;
27305;SDS011;14792;50.886;6.468;2023-03-01T18:46:55;14.33;;;7.30;;
27305;SDS011;14792;50.886;6.468;2023-03-01T18:49:56;17.75;;;8.60;;
27305;SDS011;14792;50.886;6.468;2023-03-01T18:52:58;17.80;;;8.20;;
27305;SDS011;14792;50.886;6.468;2023-03-01T18:56:00;17.77;;;8.25;;
27305;SDS011;14792;50.886;6.468;2023-03-01T18:59:01;15.53;;;8.18;;
27305;SDS011;14792;50.886;6.468;2023-03-01T19:02:03;12.95;;;7.62;;
27305;SDS011;14792;50.886;6.468;2023-03-01T19:05:04;15.60;;;8.50;;
27305;SDS011;14792;50.886;6.468;2023-03-01T19:08:06;15.65;;;8.10;;
27305;SDS011;14792;50.886;6.468;2023-03-01T19:11:08;19.00;;;8.80;;
27305;SDS011;14792;50.886;6.468;2023-03-01T19:14:09;15.98;;;8.18;;
27305;SDS011;14792;50.886;6.468;2023-03-01T19:17:11;14.53;;;8.23;;
27305;SDS011;14792;50.886;6.468;2023-03-01T19:20:12;15.35;;;8.40;;
27305;SDS011;14792;50.886;6.468;2023-03-01T19:23:14;16.10;;;7.90;;
27305;SDS011;14792;50.886;6.468;2023-03-01T19:26:17;15.63;;;8.33;;
27305;SDS011;14792;50.886;6.468;2023-03-01T19:29:17;17.50;;;9.40;;
27305;SDS011;14792;50.886;6.468;2023-03-01T19:32:19;19.77;;;9.13;;